Time;durP1;ratioP1;P1;durP2;ratioP2;P2;SDS_P1;SDS_P2;PMS_P1;PMS_P2;Temp;Humidity;BMP_temperature;BMP_pressure;BME280_temperature;BME280_humidity;BME280_pressure;Samples;Min_cycle;Max_cycle;Signal;HPM_P1;HPM_P2
2023/02/20 00:00:20;;;;;;;6.80;5.30;;;;;;;;;;5102518;28;20204;-87
2023/02/20 00:02:48;;;;;;;5.70;5.10;;;;;;;;;;5113229;28;20273;-87
2023/02/20 00:05:15;;;;;;;8.80;4.80;;;;;;;;;;5114426;28;20208;-86
2023/02/20 00:07:42;;;;;;;9.63;5.50;;;;;;;;;;5082882;28;20256;-86
2023/02/20 00:10:10;;;;;;;5.57;5.07;;;;;;;;;;5101512;28;20681;-87
2023/02/20 00:12:38;;;;;;;5.67;5.10;;;;;;;;;;5113618;28;20264;-88
2023/02/20 00:15:07;;;;;;;7.03;5.10;;;;;;;;;;5114103;28;20681;-87
2023/02/20 00:17:34;;;;;;;5.50;4.53;;;;;;;;;;5114161;28;20204;-87
2023/02/20 00:20:00;;;;;;;5.93;5.30;;;;;;;;;;5096403;28;20664;-87
2023/02/20 00:22:27;;;;;;;5.47;4.90;;;;;;;;;;5114397;28;20238;-87
2023/02/20 00:24:54;;;;;;;5.30;4.80;;;;;;;;;;5113658;28;21037;-87
2023/02/20 00:27:21;;;;;;;8.80;4.07;;;;;;;;;;5114109;28;20670;-87
2023/02/20 00:29:49;;;;;;;4.70;4.10;;;;;;;;;;5092572;28;20243;-87
2023/02/20 00:32:16;;;;;;;5.17;4.20;;;;;;;;;;5100744;28;20199;-87
2023/02/20 00:34:43;;;;;;;4.27;3.90;;;;;;;;;;5113705;28;20685;-87
2023/02/20 00:37:10;;;;;;;4.57;4.10;;;;;;;;;;5113608;28;20559;-87
2023/02/20 00:39:37;;;;;;;5.33;3.60;;;;;;;;;;5081632;28;20207;-89
2023/02/20 00:42:04;;;;;;;4.87;3.13;;;;;;;;;;5088608;28;20224;-87
2023/02/20 00:44:31;;;;;;;3.83;3.13;;;;;;;;;;5077099;28;20196;-87
2023/02/20 00:47:00;;;;;;;3.33;3.03;;;;;;;;;;5087560;28;20764;-87
2023/02/20 00:49:27;;;;;;;2.97;2.57;;;;;;;;;;5090013;28;20215;-87
2023/02/20 00:51:54;;;;;;;3.23;2.93;;;;;;;;;;5091853;28;20206;-87
2023/02/20 00:54:20;;;;;;;3.37;3.07;;;;;;;;;;5058873;28;20277;-87
2023/02/20 00:56:48;;;;;;;3.43;3.10;;;;;;;;;;5101202;28;20211;-87
2023/02/20 00:59:15;;;;;;;3.07;2.43;;;;;;;;;;5093834;28;20270;-87
2023/02/20 01:01:42;;;;;;;2.43;2.20;;;;;;;;;;5095381;28;20215;-87
2023/02/20 01:04:10;;;;;;;2.30;2.10;;;;;;;;;;5113109;28;20204;-89
2023/02/20 01:06:37;;;;;;;4.07;2.60;;;;;;;;;;5085775;28;20213;-87
2023/02/20 01:09:05;;;;;;;3.30;2.37;;;;;;;;;;5108575;28;20222;-88
2023/02/20 01:11:32;;;;;;;4.17;2.23;;;;;;;;;;5084735;28;20215;-84
2023/02/20 01:13:58;;;;;;;2.33;2.13;;;;;;;;;;5106387;28;20204;-84
2023/02/20 01:16:26;;;;;;;2.47;2.27;;;;;;;;;;5084611;28;20207;-85
2023/02/20 01:18:53;;;;;;;2.77;2.47;;;;;;;;;;5094882;28;20203;-85
2023/02/20 01:21:22;;;;;;;2.43;2.23;;;;;;;;;;5078208;28;20697;-85
2023/02/20 01:23:49;;;;;;;3.07;2.77;;;;;;;;;;5112892;28;20231;-86
2023/02/20 01:26:16;;;;;;;2.77;2.40;;;;;;;;;;5112660;28;20209;-86
2023/02/20 01:28:44;;;;;;;2.67;2.47;;;;;;;;;;5107973;28;20200;-86
2023/02/20 01:31:11;;;;;;;3.57;2.90;;;;;;;;;;5104637;28;20223;-87
2023/02/20 01:33:41;;;;;;;3.07;2.70;;;;;;;;;;5081262;28;20260;-86
2023/02/20 01:36:09;;;;;;;2.83;2.50;;;;;;;;;;5094999;28;20220;-86
2023/02/20 01:38:37;;;;;;;4.63;2.40;;;;;;;;;;5112783;28;20261;-86
2023/02/20 01:41:04;;;;;;;2.90;2.60;;;;;;;;;;5112365;28;20208;-87
2023/02/20 01:43:31;;;;;;;3.40;3.10;;;;;;;;;;5099574;28;20207;-86
2023/02/20 01:46:39;;;;;;;3.07;2.30;;;;;;;;;;5098492;28;20740;-86
2023/02/20 01:49:10;;;;;;;5.90;2.27;;;;;;;;;;5037393;28;20208;-86
2023/02/20 01:51:41;;;;;;;3.77;2.07;;;;;;;;;;5080977;28;20674;-86
2023/02/20 01:54:12;;;;;;;4.57;2.20;;;;;;;;;;5093800;28;20211;-86
2023/02/20 01:56:39;;;;;;;3.17;2.50;;;;;;;;;;5112099;28;20225;-86
2023/02/20 01:59:07;;;;;;;2.47;2.27;;;;;;;;;;5094154;28;20214;-84
2023/02/20 02:01:35;;;;;;;4.00;2.87;;;;;;;;;;5103539;28;20204;-86
2023/02/20 02:04:05;;;;;;;3.30;2.40;;;;;;;;;;5107713;28;20633;-86
2023/02/20 02:06:33;;;;;;;3.00;2.67;;;;;;;;;;5094230;28;20261;-86
2023/02/20 02:09:03;;;;;;;3.13;2.77;;;;;;;;;;5095002;28;20291;-86
2023/02/20 02:11:32;;;;;;;3.03;2.57;;;;;;;;;;5084460;28;20203;-86
2023/02/20 02:13:59;;;;;;;2.73;2.40;;;;;;;;;;5112043;28;20272;-86
2023/02/20 02:16:35;;;;;;;2.70;2.50;;;;;;;;;;5093571;28;20208;-86
2023/02/20 02:19:11;;;;;;;4.23;3.20;;;;;;;;;;5080200;28;20207;-86
2023/02/20 02:22:00;;;;;;;4.33;2.60;;;;;;;;;;5093885;28;20277;-86
2023/02/20 02:24:55;;;;;;;2.80;2.60;;;;;;;;;;5093711;28;20231;-85
2023/02/20 02:27:54;;;;;;;3.33;3.03;;;;;;;;;;5082976;28;20204;-85
2023/02/20 02:31:05;;;;;;;3.90;3.60;;;;;;;;;;5106730;28;20744;-85
2023/02/20 02:33:50;;;;;;;4.07;3.67;;;;;;;;;;5095811;28;20654;-85
2023/02/20 02:36:53;;;;;;;3.40;3.10;;;;;;;;;;5094429;28;20207;-86
2023/02/20 02:39:28;;;;;;;4.23;3.83;;;;;;;;;;5083322;28;20681;-84
2023/02/20 02:41:58;;;;;;;4.10;3.30;;;;;;;;;;5063966;28;20252;-85
2023/02/20 02:44:30;;;;;;;3.40;3.10;;;;;;;;;;5110803;28;20219;-84
2023/02/20 02:47:01;;;;;;;3.23;2.93;;;;;;;;;;5099483;28;20227;-85
2023/02/20 02:49:31;;;;;;;2.50;2.30;;;;;;;;;;5111767;28;20207;-85
2023/02/20 02:51:59;;;;;;;4.00;2.33;;;;;;;;;;5102200;28;20216;-85
2023/02/20 02:54:28;;;;;;;2.30;2.10;;;;;;;;;;5112662;28;20195;-84
2023/02/20 02:57:21;;;;;;;7.27;2.73;;;;;;;;;;5115599;28;20218;-84
2023/02/20 02:59:51;;;;;;;2.87;2.67;;;;;;;;;;5090377;28;20218;-84
2023/02/20 03:02:19;;;;;;;2.97;2.30;;;;;;;;;;5109891;28;20230;-84
2023/02/20 03:04:50;;;;;;;3.57;2.53;;;;;;;;;;5097634;28;20263;-85
2023/02/20 03:07:18;;;;;;;3.03;2.70;;;;;;;;;;5115423;28;20650;-84
2023/02/20 03:09:50;;;;;;;3.30;3.00;;;;;;;;;;5106592;28;20295;-86
2023/02/20 03:12:18;;;;;;;4.90;2.70;;;;;;;;;;5093444;28;20291;-85
2023/02/20 03:17:38;;;;;;;2.93;2.73;;;;;;;;;;5100032;28;20213;-86
2023/02/20 03:20:09;;;;;;;4.03;2.77;;;;;;;;;;5115307;28;20325;-86
2023/02/20 03:22:41;;;;;;;3.40;2.83;;;;;;;;;;5115533;28;20627;-86
2023/02/20 03:25:18;;;;;;;4.27;2.90;;;;;;;;;;5115168;28;20678;-86
2023/02/20 03:27:48;;;;;;;3.33;2.70;;;;;;;;;;5114538;28;20209;-88
2023/02/20 03:30:19;;;;;;;2.97;2.77;;;;;;;;;;5115418;28;20276;-87
2023/02/20 03:43:51;;;;;;;3.83;3.03;;;;;;;;;;5094650;28;20292;-86
2023/02/20 03:46:21;;;;;;;2.87;2.57;;;;;;;;;;5072073;28;20240;-86
2023/02/20 03:48:51;;;;;;;2.80;2.60;;;;;;;;;;5071419;28;20248;-86
2023/02/20 03:54:03;;;;;;;3.40;2.60;;;;;;;;;;5070942;28;20250;-87
2023/02/20 03:56:34;;;;;;;2.83;2.53;;;;;;;;;;5072118;28;20208;-87
2023/02/20 03:59:05;;;;;;;2.53;2.33;;;;;;;;;;5072975;28;20206;-87
2023/02/20 04:01:32;;;;;;;3.10;2.83;;;;;;;;;;5072168;28;20672;-87
2023/02/20 04:03:59;;;;;;;3.00;2.43;;;;;;;;;;5072469;28;20248;-86
2023/02/20 04:06:30;;;;;;;3.00;2.70;;;;;;;;;;5072527;28;20204;-86
2023/02/20 04:08:59;;;;;;;3.70;2.80;;;;;;;;;;5064530;28;20214;-86
2023/02/20 04:11:29;;;;;;;4.07;2.87;;;;;;;;;;5066925;28;20250;-84
2023/02/20 04:13:57;;;;;;;2.53;2.33;;;;;;;;;;5072641;28;20209;-84
2023/02/20 04:16:24;;;;;;;2.63;2.03;;;;;;;;;;5072108;28;20213;-86
2023/02/20 04:18:52;;;;;;;2.03;1.93;;;;;;;;;;5071353;28;20653;-87
2023/02/20 04:21:21;;;;;;;3.73;2.27;;;;;;;;;;5071403;28;20274;-87
2023/02/20 04:23:52;;;;;;;1.70;1.60;;;;;;;;;;5068503;28;20229;-87
2023/02/20 04:26:21;;;;;;;1.63;1.53;;;;;;;;;;5063711;28;20263;-87
2023/02/20 04:28:49;;;;;;;1.60;1.50;;;;;;;;;;5072159;28;20216;-83
2023/02/20 04:31:18;;;;;;;1.80;1.70;;;;;;;;;;5071134;28;20239;-83
2023/02/20 04:33:45;;;;;;;2.40;2.20;;;;;;;;;;5072793;28;20213;-84
2023/02/20 04:36:13;;;;;;;2.23;1.57;;;;;;;;;;5054419;28;20200;-84
2023/02/20 04:38:40;;;;;;;1.60;1.50;;;;;;;;;;5071211;28;20213;-85
2023/02/20 04:41:07;;;;;;;1.70;1.53;;;;;;;;;;5072231;28;20209;-84
2023/02/20 04:43:34;;;;;;;2.60;2.10;;;;;;;;;;5072326;28;20228;-84
2023/02/20 04:46:01;;;;;;;2.20;1.80;;;;;;;;;;5010320;28;1424925;-85
2023/02/20 04:48:30;;;;;;;2.20;1.47;;;;;;;;;;5065688;28;20211;-84
2023/02/20 04:50:57;;;;;;;1.30;1.20;;;;;;;;;;5113250;28;20290;-84
2023/02/20 04:53:24;;;;;;;2.40;2.03;;;;;;;;;;5113282;28;20678;-85
2023/02/20 04:55:52;;;;;;;1.30;1.20;;;;;;;;;;5099500;28;20674;-86
2023/02/20 04:58:19;;;;;;;1.73;1.63;;;;;;;;;;5102707;28;20204;-87
2023/02/20 05:00:46;;;;;;;0.97;0.90;;;;;;;;;;5110991;28;20593;-86
2023/02/20 05:03:14;;;;;;;1.40;1.30;;;;;;;;;;5113527;28;20207;-86
2023/02/20 05:05:42;;;;;;;1.27;1.27;;;;;;;;;;5108495;28;20212;-86
2023/02/20 05:08:09;;;;;;;1.40;1.30;;;;;;;;;;5104554;28;20256;-86
2023/02/20 05:10:37;;;;;;;1.50;1.40;;;;;;;;;;5059273;28;20286;-87
2023/02/20 05:13:04;;;;;;;1.30;1.23;;;;;;;;;;5102133;28;20210;-86
2023/02/20 05:15:32;;;;;;;1.50;1.40;;;;;;;;;;5109661;28;20208;-86
2023/02/20 05:18:00;;;;;;;2.07;1.17;;;;;;;;;;5102731;28;20199;-82
2023/02/20 05:23:12;;;;;;;1.10;1.10;;;;;;;;;;5082600;28;20293;-82
2023/02/20 05:25:39;;;;;;;1.10;1.10;;;;;;;;;;5112858;28;20195;-82
2023/02/20 05:28:05;;;;;;;1.00;1.00;;;;;;;;;;5099091;28;20664;-81
2023/02/20 05:30:32;;;;;;;2.27;1.13;;;;;;;;;;5112743;28;20264;-82
2023/02/20 05:32:59;;;;;;;1.17;1.07;;;;;;;;;;5111756;28;20260;-82
2023/02/20 05:35:26;;;;;;;1.43;1.33;;;;;;;;;;5112588;28;20215;-81
2023/02/20 05:37:52;;;;;;;1.33;1.27;;;;;;;;;;5100511;28;20690;-81
2023/02/20 05:40:21;;;;;;;0.90;0.90;;;;;;;;;;5111731;28;20207;-82
2023/02/20 05:42:47;;;;;;;1.90;1.27;;;;;;;;;;5108993;28;20215;-82
2023/02/20 05:45:14;;;;;;;1.87;1.67;;;;;;;;;;5100957;28;20284;-85
2023/02/20 05:47:42;;;;;;;3.10;2.80;;;;;;;;;;5097021;28;20656;-81
2023/02/20 05:50:09;;;;;;;1.53;1.43;;;;;;;;;;5102134;28;20215;-81
2023/02/20 05:52:36;;;;;;;1.60;1.50;;;;;;;;;;5098905;28;20207;-82
2023/02/20 05:55:04;;;;;;;1.30;1.20;;;;;;;;;;5112037;28;20191;-81
2023/02/20 05:57:32;;;;;;;1.07;0.93;;;;;;;;;;5111749;28;20689;-81
2023/02/20 05:59:59;;;;;;;1.10;1.10;;;;;;;;;;5100910;28;20208;-81
2023/02/20 06:02:28;;;;;;;1.50;1.40;;;;;;;;;;5109894;28;20203;-81
2023/02/20 06:04:55;;;;;;;1.57;1.40;;;;;;;;;;5111529;28;20234;-81
2023/02/20 06:07:22;;;;;;;1.40;1.30;;;;;;;;;;5106215;28;20200;-81
2023/02/20 06:09:48;;;;;;;1.53;1.43;;;;;;;;;;5092074;28;20204;-81
2023/02/20 06:12:15;;;;;;;1.20;1.10;;;;;;;;;;5110076;28;20257;-81
2023/02/20 06:14:43;;;;;;;1.73;1.20;;;;;;;;;;5103025;28;20192;-81
2023/02/20 06:17:10;;;;;;;1.30;1.23;;;;;;;;;;5093844;28;20203;-80
2023/02/20 06:19:37;;;;;;;1.20;1.10;;;;;;;;;;5111783;28;20212;-81
2023/02/20 06:22:03;;;;;;;5.90;1.37;;;;;;;;;;5110991;28;20206;-81
2023/02/20 06:24:30;;;;;;;3.10;1.50;;;;;;;;;;5111858;28;20279;-80
2023/02/20 06:26:57;;;;;;;1.43;1.33;;;;;;;;;;5095089;28;20210;-81
2023/02/20 06:29:24;;;;;;;9.53;1.97;;;;;;;;;;5091895;28;20208;-81
2023/02/20 06:31:52;;;;;;;1.80;1.67;;;;;;;;;;5104792;28;20208;-82
2023/02/20 06:34:19;;;;;;;1.80;1.70;;;;;;;;;;5091593;28;20208;-80
2023/02/20 06:36:46;;;;;;;2.13;1.60;;;;;;;;;;5094144;28;20681;-80
2023/02/20 06:39:13;;;;;;;2.87;1.67;;;;;;;;;;5110728;28;20564;-80
2023/02/20 06:41:40;;;;;;;5.17;1.40;;;;;;;;;;5094034;28;20223;-81
2023/02/20 06:44:07;;;;;;;2.00;1.90;;;;;;;;;;5101934;28;20231;-82
2023/02/20 06:46:34;;;;;;;1.17;1.10;;;;;;;;;;5093833;28;20784;-81
2023/02/20 06:49:02;;;;;;;1.60;1.13;;;;;;;;;;5101857;28;20230;-81
2023/02/20 06:51:31;;;;;;;1.20;1.20;;;;;;;;;;5110899;28;20355;-81
2023/02/20 06:53:58;;;;;;;2.63;1.50;;;;;;;;;;5111699;28;20210;-81
2023/02/20 06:56:26;;;;;;;1.47;1.37;;;;;;;;;;5111494;28;20203;-81
2023/02/20 06:58:54;;;;;;;1.80;1.70;;;;;;;;;;5111126;28;20199;-82
2023/02/20 07:01:22;;;;;;;1.83;1.63;;;;;;;;;;5092636;28;20582;-81
2023/02/20 07:03:50;;;;;;;1.57;1.47;;;;;;;;;;5103622;28;20743;-80
2023/02/20 07:06:18;;;;;;;2.47;1.33;;;;;;;;;;5110724;28;20207;-81
2023/02/20 07:08:44;;;;;;;3.73;1.70;;;;;;;;;;5098114;28;20197;-80
2023/02/20 07:11:14;;;;;;;1.77;1.67;;;;;;;;;;5091029;28;20207;-80
2023/02/20 07:13:42;;;;;;;3.47;2.03;;;;;;;;;;5105268;28;20196;-80
2023/02/20 07:16:09;;;;;;;7.23;4.60;;;;;;;;;;5103070;28;20207;-81
2023/02/20 07:18:36;;;;;;;6.40;2.63;;;;;;;;;;5105346;28;20203;-81
2023/02/20 07:21:03;;;;;;;3.00;2.70;;;;;;;;;;5102875;28;20200;-80
2023/02/20 07:23:31;;;;;;;1.87;1.70;;;;;;;;;;5105984;28;20214;-80
2023/02/20 07:26:00;;;;;;;2.30;2.10;;;;;;;;;;5111124;28;20231;-80
2023/02/20 07:28:27;;;;;;;1.77;1.67;;;;;;;;;;5108194;28;20682;-81
2023/02/20 07:30:54;;;;;;;2.57;2.23;;;;;;;;;;5100474;28;20196;-81
2023/02/20 07:33:20;;;;;;;1.23;1.13;;;;;;;;;;5097816;28;20211;-80
2023/02/20 07:35:47;;;;;;;2.80;1.60;;;;;;;;;;5100665;28;20671;-81
2023/02/20 07:38:14;;;;;;;2.63;2.43;;;;;;;;;;5105857;28;20273;-81
2023/02/20 07:40:42;;;;;;;2.30;1.93;;;;;;;;;;5104738;28;20199;-80
2023/02/20 07:43:11;;;;;;;2.67;1.47;;;;;;;;;;5100730;28;20204;-82
2023/02/20 07:45:38;;;;;;;1.83;1.73;;;;;;;;;;5113885;28;20227;-81
2023/02/20 07:48:05;;;;;;;1.70;1.60;;;;;;;;;;5101341;28;20207;-81
2023/02/20 07:50:33;;;;;;;3.83;2.33;;;;;;;;;;5103613;28;20233;-81
2023/02/20 07:53:00;;;;;;;2.83;1.93;;;;;;;;;;5093980;28;20196;-80
2023/02/20 07:55:27;;;;;;;2.00;1.80;;;;;;;;;;5094002;28;20197;-81
2023/02/20 07:57:57;;;;;;;3.30;2.00;;;;;;;;;;5107466;28;20636;-81
2023/02/20 08:00:25;;;;;;;3.70;1.87;;;;;;;;;;5106824;28;20215;-81
2023/02/20 08:02:51;;;;;;;1.50;1.40;;;;;;;;;;5095255;28;20207;-81
2023/02/20 08:05:18;;;;;;;1.53;1.43;;;;;;;;;;5093520;28;20226;-80
2023/02/20 08:07:46;;;;;;;1.40;1.30;;;;;;;;;;5107551;28;20208;-80
2023/02/20 08:10:13;;;;;;;1.60;1.50;;;;;;;;;;5106347;28;20677;-81
2023/02/20 08:12:40;;;;;;;5.30;1.73;;;;;;;;;;5107463;28;20204;-80
2023/02/20 08:15:12;;;;;;;4.13;1.70;;;;;;;;;;5093961;28;20204;-81
2023/02/20 08:17:38;;;;;;;7.10;1.70;;;;;;;;;;5100970;28;20203;-80
2023/02/20 08:20:07;;;;;;;3.87;2.30;;;;;;;;;;5112941;28;20291;-82
2023/02/20 08:22:35;;;;;;;4.60;1.87;;;;;;;;;;5106106;28;20196;-80
2023/02/20 08:25:03;;;;;;;1.80;1.70;;;;;;;;;;5106723;28;20243;-80
2023/02/20 08:27:29;;;;;;;5.53;1.67;;;;;;;;;;5093649;28;20205;-80
2023/02/20 08:29:56;;;;;;;1.80;1.70;;;;;;;;;;5108167;28;20199;-81
2023/02/20 08:32:24;;;;;;;8.13;1.53;;;;;;;;;;5105174;28;20591;-80
2023/02/20 08:34:51;;;;;;;2.63;2.20;;;;;;;;;;5093292;28;20702;-81
2023/02/20 08:37:21;;;;;;;4.60;2.00;;;;;;;;;;5093416;28;20196;-79
2023/02/20 08:39:48;;;;;;;2.00;1.80;;;;;;;;;;5095818;28;20208;-80
2023/02/20 08:42:16;;;;;;;1.70;1.60;;;;;;;;;;5113219;28;20739;-80
2023/02/20 08:44:42;;;;;;;3.10;1.70;;;;;;;;;;5109831;28;20224;-79
2023/02/20 08:47:09;;;;;;;7.10;1.83;;;;;;;;;;5103668;28;20219;-80
2023/02/20 08:49:37;;;;;;;2.27;2.07;;;;;;;;;;5111639;28;20721;-80
2023/02/20 08:52:05;;;;;;;1.93;1.60;;;;;;;;;;5103116;28;20615;-80
2023/02/20 08:54:32;;;;;;;1.70;1.60;;;;;;;;;;5110068;28;20294;-80
2023/02/20 08:56:59;;;;;;;1.73;1.63;;;;;;;;;;5101989;28;20201;-80
2023/02/20 08:59:26;;;;;;;1.57;1.47;;;;;;;;;;5106512;28;20200;-79
2023/02/20 09:01:52;;;;;;;2.03;1.77;;;;;;;;;;5092463;28;20588;-79
2023/02/20 09:04:20;;;;;;;2.03;1.80;;;;;;;;;;5111161;28;20627;-79
2023/02/20 09:06:49;;;;;;;3.83;3.23;;;;;;;;;;5112639;28;20203;-79
2023/02/20 09:09:16;;;;;;;6.67;2.07;;;;;;;;;;5112689;28;20196;-80
2023/02/20 09:11:43;;;;;;;4.10;2.10;;;;;;;;;;5112654;28;20255;-80
2023/02/20 09:14:10;;;;;;;7.97;1.93;;;;;;;;;;5112461;28;20191;-79
2023/02/20 09:16:40;;;;;;;5.43;2.47;;;;;;;;;;5100588;28;20213;-78
2023/02/20 09:19:07;;;;;;;9.60;2.83;;;;;;;;;;5092477;28;20196;-80
2023/02/20 09:21:34;;;;;;;2.33;2.13;;;;;;;;;;5092323;28;20225;-79
2023/02/20 09:24:02;;;;;;;2.23;2.10;;;;;;;;;;5098151;28;20203;-80
2023/02/20 09:26:29;;;;;;;2.63;2.43;;;;;;;;;;5098915;28;20779;-80
2023/02/20 09:28:58;;;;;;;2.50;2.30;;;;;;;;;;5105744;28;20212;-80
2023/02/20 09:31:25;;;;;;;1.83;1.73;;;;;;;;;;5105863;28;20208;-81
2023/02/20 09:33:51;;;;;;;2.87;2.23;;;;;;;;;;5099233;28;20651;-80
2023/02/20 09:36:18;;;;;;;2.77;1.90;;;;;;;;;;5111554;28;20636;-80
2023/02/20 09:38:45;;;;;;;5.20;2.20;;;;;;;;;;5112291;28;20203;-80
2023/02/20 09:41:26;;;;;;;3.97;1.90;;;;;;;;;;5112061;28;20199;-80
2023/02/20 09:43:59;;;;;;;2.80;2.50;;;;;;;;;;5102515;28;20240;-80
2023/02/20 09:46:26;;;;;;;3.10;2.17;;;;;;;;;;5105201;28;20235;-80
2023/02/20 09:49:03;;;;;;;2.20;2.00;;;;;;;;;;5091979;28;20204;-78
2023/02/20 09:51:31;;;;;;;5.43;1.90;;;;;;;;;;5110507;28;20199;-80
2023/02/20 09:54:03;;;;;;;2.30;2.10;;;;;;;;;;5112321;28;20288;-79
2023/02/20 09:56:34;;;;;;;2.83;2.20;;;;;;;;;;5111889;28;20199;-80
2023/02/20 09:59:07;;;;;;;2.03;1.83;;;;;;;;;;5111162;28;20207;-80
2023/02/20 10:01:34;;;;;;;2.53;2.33;;;;;;;;;;5091027;28;20196;-79
2023/02/20 10:04:03;;;;;;;2.20;2.00;;;;;;;;;;5107313;28;20195;-80
2023/02/20 10:06:32;;;;;;;1.97;1.87;;;;;;;;;;5102518;28;20228;-80
2023/02/20 10:09:01;;;;;;;2.43;2.23;;;;;;;;;;5107492;28;20215;-81
2023/02/20 10:11:45;;;;;;;1.73;1.63;;;;;;;;;;5102098;28;20217;-79
2023/02/20 10:14:28;;;;;;;2.70;2.20;;;;;;;;;;5109967;28;20218;-80
2023/02/20 10:16:59;;;;;;;6.03;1.97;;;;;;;;;;5111600;28;20252;-80
2023/02/20 10:19:30;;;;;;;3.80;1.80;;;;;;;;;;5111807;28;20221;-80
2023/02/20 10:22:02;;;;;;;3.40;1.97;;;;;;;;;;5098027;28;20740;-80
2023/02/20 10:24:40;;;;;;;2.50;2.30;;;;;;;;;;5111509;28;20206;-83
2023/02/20 10:27:19;;;;;;;2.30;2.20;;;;;;;;;;5106018;28;20699;-80
2023/02/20 10:29:46;;;;;;;1.97;1.80;;;;;;;;;;5105333;28;20591;-79
2023/02/20 10:32:15;;;;;;;1.87;1.77;;;;;;;;;;5090959;28;20679;-80
2023/02/20 10:34:48;;;;;;;4.33;2.20;;;;;;;;;;5105356;28;20673;-80
2023/02/20 10:37:18;;;;;;;2.00;1.90;;;;;;;;;;5102917;28;20682;-80
2023/02/20 10:39:50;;;;;;;1.80;1.70;;;;;;;;;;5104673;28;20199;-79
2023/02/20 10:42:23;;;;;;;2.17;2.00;;;;;;;;;;5090794;28;20683;-79
2023/02/20 10:44:53;;;;;;;5.40;1.70;;;;;;;;;;5095007;28;20212;-80
2023/02/20 10:47:23;;;;;;;1.77;1.67;;;;;;;;;;5111329;28;20231;-80
2023/02/20 10:49:52;;;;;;;1.70;1.60;;;;;;;;;;5097498;28;20272;-80
2023/02/20 10:52:23;;;;;;;2.27;1.80;;;;;;;;;;5110964;28;20211;-80
2023/02/20 10:54:52;;;;;;;2.40;2.20;;;;;;;;;;5111002;28;20253;-80
2023/02/20 10:57:25;;;;;;;2.27;2.07;;;;;;;;;;5110670;28;21027;-80
2023/02/20 10:59:54;;;;;;;2.33;1.43;;;;;;;;;;5091055;28;20227;-80
2023/02/20 11:02:23;;;;;;;3.70;1.90;;;;;;;;;;5104472;28;20211;-79
2023/02/20 11:04:52;;;;;;;1.80;1.70;;;;;;;;;;5100173;28;20674;-79
2023/02/20 11:07:21;;;;;;;1.97;1.77;;;;;;;;;;5108164;28;20205;-79
2023/02/20 11:09:49;;;;;;;1.50;1.40;;;;;;;;;;5090699;28;20210;-79
2023/02/20 11:12:25;;;;;;;1.17;1.10;;;;;;;;;;5091438;28;20204;-79
2023/02/20 11:14:53;;;;;;;2.17;1.70;;;;;;;;;;5095252;28;20219;-79
2023/02/20 11:17:21;;;;;;;1.53;1.50;;;;;;;;;;5112056;28;20257;-79
2023/02/20 11:19:50;;;;;;;3.13;2.53;;;;;;;;;;5103452;28;20687;-80
2023/02/20 11:22:18;;;;;;;1.80;1.60;;;;;;;;;;5094557;28;20197;-79
2023/02/20 11:24:47;;;;;;;1.80;1.70;;;;;;;;;;5107101;28;20256;-80
2023/02/20 11:27:16;;;;;;;3.97;1.63;;;;;;;;;;5101367;28;20292;-79
2023/02/20 11:29:54;;;;;;;1.47;1.30;;;;;;;;;;5101540;28;20204;-80
2023/02/20 11:32:33;;;;;;;1.20;1.10;;;;;;;;;;5094265;28;20745;-80
2023/02/20 11:35:14;;;;;;;1.50;1.40;;;;;;;;;;5097828;28;20208;-80
2023/02/20 11:37:42;;;;;;;1.60;1.17;;;;;;;;;;5114602;28;20207;-80
2023/02/20 11:40:15;;;;;;;1.13;1.10;;;;;;;;;;5100794;28;20261;-80
2023/02/20 11:42:42;;;;;;;1.40;1.30;;;;;;;;;;5101321;28;20208;-80
2023/02/20 11:45:15;;;;;;;1.27;1.20;;;;;;;;;;5100767;28;20192;-80
2023/02/20 11:47:42;;;;;;;2.00;1.47;;;;;;;;;;5114231;28;20262;-79
2023/02/20 11:50:15;;;;;;;2.07;1.10;;;;;;;;;;5114407;28;20205;-80
2023/02/20 11:52:59;;;;;;;1.40;1.30;;;;;;;;;;5114029;28;20207;-79
2023/02/20 11:55:29;;;;;;;1.97;1.83;;;;;;;;;;5114214;28;20208;-80
2023/02/20 11:57:56;;;;;;;1.47;1.30;;;;;;;;;;5113547;28;20204;-80
2023/02/20 12:00:26;;;;;;;1.00;1.00;;;;;;;;;;5101942;28;20216;-79
2023/02/20 12:03:03;;;;;;;1.10;1.10;;;;;;;;;;5100171;28;20593;-79
2023/02/20 12:05:38;;;;;;;1.73;1.10;;;;;;;;;;5114090;28;20225;-80
2023/02/20 12:08:32;;;;;;;2.57;1.20;;;;;;;;;;5105561;28;20282;-80
2023/02/20 12:11:00;;;;;;;1.83;1.30;;;;;;;;;;5107934;28;20604;-84
2023/02/20 12:13:28;;;;;;;1.00;1.00;;;;;;;;;;5107088;28;20207;-79
2023/02/20 12:16:00;;;;;;;3.03;1.43;;;;;;;;;;5107625;28;20207;-79
2023/02/20 12:18:45;;;;;;;1.43;1.23;;;;;;;;;;5093544;28;20679;-80
2023/02/20 12:21:27;;;;;;;1.77;1.67;;;;;;;;;;5102592;28;20624;-79
2023/02/20 12:24:02;;;;;;;1.33;1.30;;;;;;;;;;5108305;28;20211;-79
2023/02/20 12:26:43;;;;;;;1.33;1.30;;;;;;;;;;5092972;28;20224;-79
2023/02/20 12:29:26;;;;;;;1.27;1.17;;;;;;;;;;5093948;28;20204;-80
2023/02/20 12:32:03;;;;;;;1.77;1.53;;;;;;;;;;5106710;28;20200;-79
2023/02/20 12:34:45;;;;;;;1.80;0.97;;;;;;;;;;5093509;28;20204;-80
2023/02/20 12:37:19;;;;;;;3.30;1.40;;;;;;;;;;5093310;28;20197;-80
2023/02/20 12:39:54;;;;;;;1.20;1.10;;;;;;;;;;5095466;28;20199;-79
2023/02/20 12:42:28;;;;;;;1.20;1.10;;;;;;;;;;5102629;28;20200;-79
2023/02/20 12:45:12;;;;;;;2.73;1.10;;;;;;;;;;5097483;28;20200;-79
2023/02/20 12:47:42;;;;;;;1.40;1.30;;;;;;;;;;5112716;28;20236;-79
2023/02/20 12:50:34;;;;;;;1.37;1.27;;;;;;;;;;5093274;28;20235;-80
2023/02/20 12:53:12;;;;;;;1.40;1.30;;;;;;;;;;5092885;28;20207;-80
2023/02/20 12:55:48;;;;;;;1.13;1.13;;;;;;;;;;5092755;28;20204;-80
2023/02/20 12:58:29;;;;;;;4.00;2.93;;;;;;;;;;5092745;28;20218;-79
2023/02/20 13:01:00;;;;;;;8.17;6.50;;;;;;;;;;5106529;28;20269;-79
2023/02/20 13:03:37;;;;;;;10.67;8.60;;;;;;;;;;5092668;28;20204;-79
2023/02/20 13:06:04;;;;;;;1.83;1.70;;;;;;;;;;5111284;28;20230;-79
2023/02/20 13:08:34;;;;;;;6.23;1.63;;;;;;;;;;5112880;28;20624;-80
2023/02/20 13:11:03;;;;;;;1.73;1.23;;;;;;;;;;5107082;28;20194;-79
2023/02/20 13:13:37;;;;;;;1.90;1.80;;;;;;;;;;5105277;28;20208;-83
2023/02/20 13:16:07;;;;;;;3.67;3.37;;;;;;;;;;5099244;28;20662;-80
2023/02/20 13:18:43;;;;;;;2.03;1.80;;;;;;;;;;5099000;28;20667;-80
2023/02/20 13:21:14;;;;;;;6.10;2.30;;;;;;;;;;5103459;28;20200;-79
2023/02/20 13:23:42;;;;;;;2.70;1.43;;;;;;;;;;5092270;28;20283;-79
2023/02/20 13:26:45;;;;;;;2.37;1.93;;;;;;;;;;5102501;28;20227;-79
2023/02/20 13:29:13;;;;;;;1.43;1.33;;;;;;;;;;5100465;28;20210;-79
2023/02/20 13:31:45;;;;;;;6.83;1.30;;;;;;;;;;5112073;28;20212;-79
2023/02/20 13:34:32;;;;;;;1.80;1.70;;;;;;;;;;5112826;28;20208;-79
2023/02/20 13:36:59;;;;;;;3.70;2.80;;;;;;;;;;5111617;28;20226;-84
2023/02/20 13:39:44;;;;;;;2.80;2.30;;;;;;;;;;5112156;28;20211;-79
2023/02/20 13:42:31;;;;;;;5.77;3.13;;;;;;;;;;5091628;28;20205;-80
2023/02/20 13:44:59;;;;;;;2.60;2.40;;;;;;;;;;5091833;28;20208;-79
2023/02/20 13:47:35;;;;;;;2.07;1.87;;;;;;;;;;5103957;28;20235;-80
2023/02/20 13:50:30;;;;;;;2.50;1.63;;;;;;;;;;5105640;28;20203;-79
2023/02/20 13:52:58;;;;;;;1.50;1.40;;;;;;;;;;5095448;28;20200;-79
2023/02/20 13:55:29;;;;;;;1.43;1.30;;;;;;;;;;5101122;28;20204;-79
2023/02/20 13:58:02;;;;;;;1.20;1.20;;;;;;;;;;5096594;28;20223;-79
2023/02/20 14:00:35;;;;;;;1.17;1.17;;;;;;;;;;5112236;28;20207;-80
2023/02/20 14:03:11;;;;;;;1.40;1.20;;;;;;;;;;5105179;28;20200;-79
2023/02/20 14:05:40;;;;;;;1.63;1.50;;;;;;;;;;5106169;28;20260;-79
2023/02/20 14:08:07;;;;;;;1.57;1.47;;;;;;;;;;5112311;28;20638;-78
2023/02/20 14:10:35;;;;;;;1.53;1.40;;;;;;;;;;5096056;28;20208;-79
2023/02/20 14:13:03;;;;;;;3.80;1.27;;;;;;;;;;5100586;28;20257;-79
2023/02/20 14:15:32;;;;;;;1.93;1.73;;;;;;;;;;5097525;28;20197;-80
2023/02/20 14:17:59;;;;;;;1.80;1.60;;;;;;;;;;5112166;28;20196;-83
2023/02/20 14:20:31;;;;;;;2.37;1.27;;;;;;;;;;5097554;28;20586;-80
2023/02/20 14:23:18;;;;;;;1.30;1.30;;;;;;;;;;5101263;28;20200;-79
2023/02/20 14:25:54;;;;;;;3.47;2.20;;;;;;;;;;5104750;28;20291;-79
2023/02/20 14:28:20;;;;;;;3.73;1.97;;;;;;;;;;5092234;28;20245;-79
2023/02/20 14:30:47;;;;;;;1.50;1.40;;;;;;;;;;5103584;28;20264;-80
2023/02/20 14:33:25;;;;;;;1.40;1.30;;;;;;;;;;5104689;28;20655;-79
2023/02/20 14:36:26;;;;;;;1.67;1.57;;;;;;;;;;5101443;28;20206;-79
2023/02/20 14:39:03;;;;;;;2.13;1.93;;;;;;;;;;5086217;28;20196;-79
2023/02/20 14:41:31;;;;;;;2.73;2.20;;;;;;;;;;5090916;28;20196;-81
2023/02/20 14:43:59;;;;;;;1.77;1.30;;;;;;;;;;5101646;28;20241;-79
2023/02/20 14:46:28;;;;;;;1.83;1.70;;;;;;;;;;5111419;28;20662;-79
2023/02/20 14:49:06;;;;;;;1.83;1.67;;;;;;;;;;5115805;28;20203;-79
2023/02/20 14:51:33;;;;;;;2.30;2.10;;;;;;;;;;5101472;28;20196;-80
2023/02/20 14:54:02;;;;;;;3.57;2.03;;;;;;;;;;5102868;28;20203;-82
2023/02/20 14:56:30;;;;;;;1.97;1.70;;;;;;;;;;5101847;28;20260;-79
2023/02/20 14:58:58;;;;;;;3.73;2.77;;;;;;;;;;5115232;28;20294;-80
2023/02/20 15:01:37;;;;;;;2.63;2.43;;;;;;;;;;5102226;28;20199;-80
2023/02/20 15:04:10;;;;;;;5.63;2.07;;;;;;;;;;5115461;28;20764;-80
2023/02/20 15:06:38;;;;;;;3.13;2.40;;;;;;;;;;5115493;28;20255;-79
2023/02/20 15:09:07;;;;;;;4.73;2.83;;;;;;;;;;5111837;28;20200;-80
2023/02/20 15:11:35;;;;;;;2.47;2.23;;;;;;;;;;5095181;28;20203;-80
2023/02/20 15:14:03;;;;;;;2.23;2.00;;;;;;;;;;5107856;28;20211;-80
2023/02/20 15:16:31;;;;;;;1.80;1.70;;;;;;;;;;5103820;28;20208;-83
2023/02/20 15:18:58;;;;;;;2.00;1.70;;;;;;;;;;5109949;28;20204;-80
2023/02/20 15:21:36;;;;;;;2.03;1.93;;;;;;;;;;5095210;28;20202;-79